Time;durP1;ratioP1;P1;durP2;ratioP2;P2;SDS_P1;SDS_P2;PMS_P1;PMS_P2;Temp;Humidity;BMP_temperature;BMP_pressure;BME280_temperature;BME280_humidity;BME280_pressure;Samples;Min_cycle;Max_cycle;Signal;HPM_P1;HPM_P2
2023/10/08 00:00:53;;;;;;;30.17;27.67;;;11.20;95.10;;;;;;4993021;28;20236;-89
2023/10/08 00:03:20;;;;;;;32.47;29.77;;;11.20;95.10;;;;;;4993116;28;20202;-90
2023/10/08 00:05:46;;;;;;;25.53;23.03;;;11.20;95.10;;;;;;4994500;28;20182;-91
2023/10/08 00:08:16;;;;;;;25.20;17.53;;;11.20;95.10;;;;;;4993086;28;20178;-91
2023/10/08 00:10:42;;;;;;;28.93;16.67;;;11.20;95.10;;;;;;4992956;28;20570;-90
2023/10/08 00:13:12;;;;;;;32.63;25.97;;;11.20;95.10;;;;;;4992920;28;20178;-91
2023/10/08 00:15:41;;;;;;;30.60;27.53;;;11.20;95.10;;;;;;4993078;28;20198;-90
2023/10/08 00:18:11;;;;;;;30.87;28.13;;;11.20;95.10;;;;;;4992930;28;20189;-89
2023/10/08 00:20:54;;;;;;;19.80;17.27;;;11.30;95.10;;;;;;4992819;28;20285;-89
2023/10/08 00:23:21;;;;;;;21.60;17.90;;;11.20;95.10;;;;;;4994375;28;20237;-89
2023/10/08 00:25:47;;;;;;;31.37;28.27;;;11.20;95.10;;;;;;4992641;28;20202;-89
2023/10/08 00:28:13;;;;;;;29.83;27.33;;;11.20;95.10;;;;;;4992587;28;20236;-90
2023/10/08 00:30:41;;;;;;;26.90;23.53;;;11.20;95.10;;;;;;4992720;28;20181;-89
2023/10/08 00:33:08;;;;;;;33.03;29.93;;;11.20;95.10;;;;;;4992778;28;20210;-90
2023/10/08 00:35:41;;;;;;;36.87;31.10;;;11.30;95.10;;;;;;4992760;28;20202;-90
2023/10/08 00:38:14;;;;;;;33.27;29.80;;;11.30;95.10;;;;;;4993600;28;20174;-89
2023/10/08 00:40:45;;;;;;;22.13;17.20;;;11.30;95.10;;;;;;4992353;28;20220;-91
2023/10/08 00:43:32;;;;;;;20.60;18.43;;;11.30;95.10;;;;;;4998807;28;20527;-90
2023/10/08 00:45:59;;;;;;;23.50;16.97;;;11.20;95.00;;;;;;4992571;28;20217;-90
2023/10/08 00:48:29;;;;;;;22.27;16.53;;;11.20;95.00;;;;;;4992608;28;20178;-89
2023/10/08 00:51:10;;;;;;;23.87;16.57;;;11.30;95.00;;;;;;4993811;28;20162;-90
2023/10/08 00:53:39;;;;;;;22.63;16.37;;;11.30;95.00;;;;;;4992612;28;20634;-90
2023/10/08 00:56:13;;;;;;;30.00;27.23;;;11.30;95.00;;;;;;4993413;28;20198;-91
2023/10/08 00:58:40;;;;;;;30.03;27.00;;;11.30;95.00;;;;;;4993546;28;20166;-92
2023/10/08 01:01:10;;;;;;;27.37;24.63;;;11.30;94.90;;;;;;4992597;28;20201;-92
2023/10/08 01:03:36;;;;;;;21.23;15.93;;;11.30;94.90;;;;;;4993933;28;20169;-91
2023/10/08 01:06:03;;;;;;;22.10;15.50;;;11.30;94.90;;;;;;4993674;28;20201;-91
2023/10/08 01:08:45;;;;;;;26.53;23.83;;;11.30;94.90;;;;;;4992697;28;20716;-91
2023/10/08 01:11:46;;;;;;;28.93;25.77;;;11.30;94.80;;;;;;4992442;28;20225;-91
2023/10/08 01:14:12;;;;;;;22.47;15.37;;;11.30;94.80;;;;;;4992818;28;20324;-91
2023/10/08 01:16:39;;;;;;;20.93;15.10;;;11.40;94.70;;;;;;4992510;28;20277;-91
2023/10/08 01:19:12;;;;;;;26.40;24.47;;;11.30;94.60;;;;;;4992526;28;20240;-91
2023/10/08 01:21:39;;;;;;;28.33;25.70;;;11.30;94.70;;;;;;4993136;28;20623;-91
2023/10/08 01:24:06;;;;;;;28.80;26.20;;;11.30;94.60;;;;;;4992581;28;20226;-92
2023/10/08 01:26:33;;;;;;;15.27;13.90;;;11.30;94.50;;;;;;4992430;28;20342;-92
2023/10/08 01:29:07;;;;;;;18.70;15.20;;;11.30;94.50;;;;;;4993676;28;20166;-91
2023/10/08 01:31:33;;;;;;;19.13;14.20;;;11.30;94.50;;;;;;4992454;28;20174;-92
2023/10/08 01:33:58;;;;;;;19.00;15.07;;;11.20;94.30;;;;;;4993487;28;20182;-91
2023/10/08 01:36:28;;;;;;;21.13;14.83;;;11.20;94.40;;;;;;4993440;28;20209;-92
2023/10/08 01:38:54;;;;;;;20.83;16.87;;;11.20;94.20;;;;;;4992340;28;20189;-92
2023/10/08 01:41:22;;;;;;;20.60;15.90;;;11.00;94.00;;;;;;4992209;28;20257;-91
2023/10/08 01:43:52;;;;;;;21.90;19.50;;;11.10;93.90;;;;;;4992113;28;20179;-91
2023/10/08 01:46:21;;;;;;;19.07;17.50;;;10.80;93.40;;;;;;4991926;28;20652;-91
2023/10/08 01:48:50;;;;;;;18.23;16.60;;;10.90;93.30;;;;;;4993432;28;20173;-92
2023/10/08 01:51:24;;;;;;;18.93;17.13;;;11.00;93.20;;;;;;4992811;28;20722;-91
2023/10/08 01:53:53;;;;;;;26.77;17.37;;;11.00;93.00;;;;;;4995601;28;20169;-91
2023/10/08 01:56:19;;;;;;;19.83;17.87;;;11.00;92.90;;;;;;4995524;28;20562;-92
2023/10/08 01:58:46;;;;;;;23.43;17.73;;;10.90;92.40;;;;;;4995521;28;20186;-91
2023/10/08 02:01:12;;;;;;;22.33;18.40;;;10.80;92.10;;;;;;4996704;28;20194;-91
2023/10/08 02:03:38;;;;;;;19.93;17.97;;;10.80;91.90;;;;;;4996652;28;20166;-91
2023/10/08 02:06:06;;;;;;;21.77;19.70;;;10.90;91.80;;;;;;4996448;28;20197;-91
2023/10/08 02:08:31;;;;;;;32.27;21.00;;;10.80;91.20;;;;;;4995136;28;20670;-90
2023/10/08 02:10:57;;;;;;;22.20;19.20;;;10.80;90.70;;;;;;4996457;28;20170;-91
2023/10/08 02:13:23;;;;;;;20.23;18.30;;;10.80;90.60;;;;;;4995217;28;20558;-92
2023/10/08 02:15:52;;;;;;;20.53;18.40;;;11.00;90.60;;;;;;4995090;28;20205;-91
2023/10/08 02:18:25;;;;;;;18.97;17.60;;;11.00;90.70;;;;;;4995985;28;20178;-90
2023/10/08 02:20:51;;;;;;;20.07;18.67;;;11.00;90.80;;;;;;4994954;28;20205;-91
2023/10/08 02:23:18;;;;;;;19.53;17.93;;;11.00;90.70;;;;;;4995101;28;20177;-91
2023/10/08 02:25:44;;;;;;;20.20;18.60;;;11.00;90.80;;;;;;4995122;28;20288;-91
2023/10/08 02:28:15;;;;;;;20.07;18.57;;;11.00;90.80;;;;;;4996451;28;20257;-91
2023/10/08 02:30:41;;;;;;;20.27;18.53;;;11.00;90.90;;;;;;4995784;28;20257;-91
2023/10/08 02:33:15;;;;;;;21.20;19.13;;;10.90;90.70;;;;;;4994745;28;20221;-91
2023/10/08 02:35:44;;;;;;;20.27;18.63;;;10.90;90.80;;;;;;4994785;28;20684;-92
2023/10/08 02:38:13;;;;;;;21.27;19.30;;;10.80;90.80;;;;;;4995056;28;20265;-91
2023/10/08 02:40:44;;;;;;;20.53;18.60;;;10.90;90.90;;;;;;4995955;28;20232;-91
2023/10/08 02:43:11;;;;;;;23.33;19.40;;;10.90;90.90;;;;;;4995496;28;20163;-91
2023/10/08 02:45:38;;;;;;;21.83;19.57;;;10.80;90.70;;;;;;4994439;28;20366;-91
2023/10/08 02:48:11;;;;;;;21.97;19.93;;;10.70;90.50;;;;;;4994593;28;20166;-91
2023/10/08 02:50:40;;;;;;;21.87;19.90;;;10.60;90.20;;;;;;4994512;28;20166;-92
2023/10/08 02:53:10;;;;;;;21.47;19.40;;;10.60;90.10;;;;;;4994432;28;20182;-90
2023/10/08 02:55:42;;;;;;;20.67;18.97;;;10.70;89.90;;;;;;4994491;28;20218;-91
2023/10/08 02:58:12;;;;;;;20.90;18.97;;;10.70;89.90;;;;;;4994840;28;20252;-92
2023/10/08 03:00:40;;;;;;;21.20;19.30;;;10.70;89.90;;;;;;4995088;28;20190;-91
2023/10/08 03:03:09;;;;;;;20.97;19.17;;;10.70;90.00;;;;;;4993452;28;20182;-91
2023/10/08 03:05:35;;;;;;;20.50;18.70;;;10.60;89.70;;;;;;4994261;28;20198;-91
2023/10/08 03:08:02;;;;;;;20.73;19.00;;;10.60;89.70;;;;;;4994099;28;20181;-91
2023/10/08 03:10:34;;;;;;;20.53;18.87;;;10.60;89.60;;;;;;4994184;28;20261;-90
2023/10/08 03:13:05;;;;;;;20.77;18.80;;;10.60;89.40;;;;;;4994137;28;20173;-91
2023/10/08 03:15:39;;;;;;;20.97;19.10;;;10.70;89.40;;;;;;4994203;28;20208;-91
2023/10/08 03:18:10;;;;;;;21.40;19.27;;;10.70;89.30;;;;;;4994018;28;20554;-91
2023/10/08 03:20:46;;;;;;;20.50;18.80;;;10.70;89.30;;;;;;4995084;28;20192;-91
2023/10/08 03:23:22;;;;;;;20.87;18.97;;;10.60;89.20;;;;;;4993886;28;20630;-90
2023/10/08 03:25:56;;;;;;;21.03;19.17;;;10.60;89.30;;;;;;4994155;28;20615;-91
2023/10/08 03:28:24;;;;;;;37.23;34.50;;;10.50;89.00;;;;;;4993868;28;20300;-91
2023/10/08 03:30:51;;;;;;;39.67;36.80;;;10.50;88.50;;;;;;4993752;28;20174;-91
2023/10/08 03:33:22;;;;;;;42.10;39.00;;;10.50;88.20;;;;;;4994838;28;20261;-90
2023/10/08 03:35:52;;;;;;;23.20;19.97;;;10.50;88.10;;;;;;4993602;28;20226;-91
2023/10/08 03:38:21;;;;;;;20.73;19.03;;;10.50;88.00;;;;;;4993589;28;20177;-90
2023/10/08 03:40:49;;;;;;;34.27;31.70;;;10.60;88.00;;;;;;4994388;28;20198;-91
2023/10/08 03:43:33;;;;;;;35.83;32.60;;;10.60;88.10;;;;;;4993541;28;20178;-90
2023/10/08 03:45:59;;;;;;;39.30;36.33;;;10.70;88.20;;;;;;4993421;28;20213;-90
2023/10/08 03:48:25;;;;;;;21.77;19.57;;;10.70;88.30;;;;;;4993721;28;20178;-91
2023/10/08 03:51:06;;;;;;;20.03;18.40;;;10.70;88.40;;;;;;4993428;28;20182;-91
2023/10/08 03:53:37;;;;;;;35.17;32.17;;;10.70;88.60;;;;;;4993499;28;20738;-91
2023/10/08 03:56:06;;;;;;;37.50;34.47;;;10.70;88.70;;;;;;4993371;28;20205;-90
2023/10/08 03:58:40;;;;;;;29.27;26.73;;;10.60;88.60;;;;;;4993365;28;20245;-90
2023/10/08 04:01:10;;;;;;;21.00;19.23;;;10.50;88.40;;;;;;4993364;28;20193;-91
2023/10/08 04:03:57;;;;;;;20.57;18.97;;;10.50;88.60;;;;;;4999987;28;20178;-91
2023/10/08 04:06:28;;;;;;;33.60;31.10;;;10.40;88.50;;;;;;4994319;28;20277;-91
2023/10/08 04:14:20;;;;;;;20.90;19.10;;;10.50;88.40;;;;;;4994661;28;20236;-91
2023/10/08 04:16:51;;;;;;;20.03;18.63;;;10.40;88.00;;;;;;4993569;28;20185;-91
2023/10/08 04:19:18;;;;;;;20.90;19.00;;;10.50;88.10;;;;;;4993256;28;20584;-91
2023/10/08 04:21:44;;;;;;;20.83;18.83;;;10.50;88.20;;;;;;4993011;28;20340;-91
2023/10/08 04:24:11;;;;;;;20.83;19.10;;;10.50;88.10;;;;;;4993064;28;20233;-91
2023/10/08 04:26:40;;;;;;;21.77;19.30;;;10.40;88.00;;;;;;4993047;28;20261;-91
2023/10/08 04:29:06;;;;;;;20.90;18.70;;;10.40;88.00;;;;;;4992985;28;20261;-91
2023/10/08 04:31:38;;;;;;;20.57;18.73;;;10.40;88.10;;;;;;4992845;28;20178;-91
2023/10/08 04:34:17;;;;;;;21.67;19.80;;;10.40;88.00;;;;;;4992739;28;20201;-91
2023/10/08 04:36:45;;;;;;;21.73;20.03;;;10.30;87.70;;;;;;4994052;28;20641;-91
2023/10/08 04:39:15;;;;;;;21.67;19.90;;;10.30;87.30;;;;;;4992724;28;20189;-90
2023/10/08 04:41:42;;;;;;;21.47;19.67;;;10.30;87.00;;;;;;4992662;28;20198;-90
2023/10/08 04:44:14;;;;;;;21.50;19.77;;;10.40;86.80;;;;;;4992690;28;20270;-91
2023/10/08 04:46:46;;;;;;;21.83;19.47;;;10.40;86.90;;;;;;4992698;28;20190;-90
2023/10/08 04:49:28;;;;;;;22.93;20.80;;;10.40;86.90;;;;;;4992724;28;20166;-90
2023/10/08 04:52:05;;;;;;;22.30;19.97;;;10.40;86.40;;;;;;4992595;28;20162;-90
2023/10/08 04:54:30;;;;;;;22.00;19.90;;;10.40;86.70;;;;;;4992611;28;20197;-90
2023/10/08 04:56:58;;;;;;;21.33;19.10;;;10.40;87.10;;;;;;4992591;28;20181;-91
2023/10/08 04:59:32;;;;;;;20.30;18.57;;;10.50;87.60;;;;;;4992588;28;20184;-91
2023/10/08 05:05:21;;;;;;;20.23;18.53;;;10.40;88.40;;;;;;4994057;28;20695;-90
2023/10/08 05:13:01;;;;;;;20.20;18.30;;;10.50;88.90;;;;;;4993621;28;20501;-90
2023/10/08 05:15:35;;;;;;;20.53;18.77;;;10.60;89.00;;;;;;4993205;28;20205;-90
2023/10/08 05:18:23;;;;;;;20.07;18.50;;;10.50;89.10;;;;;;4992411;28;20172;-90
2023/10/08 05:26:08;;;;;;;19.70;18.20;;;10.50;89.90;;;;;;4993941;28;20197;-90
2023/10/08 05:34:22;;;;;;;19.77;18.20;;;10.50;90.10;;;;;;4995096;28;20287;-91
2023/10/08 05:37:14;;;;;;;20.00;18.30;;;10.50;90.20;;;;;;4995556;28;20182;-90
2023/10/08 05:42:19;;;;;;;19.03;17.63;;;10.40;90.30;;;;;;4997216;28;20642;-90
2023/10/08 05:45:04;;;;;;;19.70;18.10;;;10.40;90.40;;;;;;4996183;28;20696;-90
2023/10/08 05:55:33;;;;;;;19.77;17.93;;;10.30;91.10;;;;;;4996964;28;20204;-90
2023/10/08 05:58:24;;;;;;;18.40;16.93;;;10.30;91.10;;;;;;4995499;28;20263;-90
2023/10/08 06:08:49;;;;;;;18.23;16.70;;;10.30;91.50;;;;;;4996889;28;20196;-91
2023/10/08 06:11:41;;;;;;;19.10;17.60;;;10.30;91.50;;;;;;4996834;28;20158;-91
2023/10/08 06:14:13;;;;;;;19.80;18.10;;;10.30;91.60;;;;;;4995274;28;20202;-91
2023/10/08 06:16:43;;;;;;;19.60;17.70;;;10.40;91.60;;;;;;4995303;28;20166;-91
2023/10/08 06:19:14;;;;;;;20.23;16.90;;;10.40;91.60;;;;;;4995069;28;20185;-91
2023/10/08 06:21:42;;;;;;;22.83;16.93;;;10.40;91.90;;;;;;4995081;28;20221;-90
2023/10/08 06:24:09;;;;;;;18.97;17.40;;;10.40;92.00;;;;;;4995039;28;20186;-89
2023/10/08 06:26:42;;;;;;;18.43;16.70;;;10.50;92.10;;;;;;5000671;28;20170;-90
2023/10/08 06:29:18;;;;;;;17.40;15.97;;;10.50;92.10;;;;;;4997231;28;20158;-91
2023/10/08 06:31:51;;;;;;;26.53;24.77;;;10.50;92.20;;;;;;4996318;28;20229;-91
2023/10/08 06:34:21;;;;;;;27.77;25.67;;;10.50;92.30;;;;;;4997012;28;20190;-91
2023/10/08 06:36:48;;;;;;;28.50;26.17;;;10.50;92.30;;;;;;4996593;28;20182;-90
2023/10/08 06:39:18;;;;;;;28.23;26.17;;;10.50;92.40;;;;;;4994911;28;20220;-92
2023/10/08 06:41:46;;;;;;;28.83;26.40;;;10.60;92.40;;;;;;4996220;28;20194;-91
2023/10/08 06:44:14;;;;;;;18.70;17.03;;;10.60;92.40;;;;;;4994974;28;20198;-91
2023/10/08 06:46:41;;;;;;;19.53;17.70;;;10.60;92.40;;;;;;4995111;28;20225;-91
2023/10/08 06:49:11;;;;;;;18.87;17.03;;;10.60;92.40;;;;;;5000512;28;20229;-94
2023/10/08 06:51:38;;;;;;;20.90;19.13;;;10.50;92.30;;;;;;5004483;28;20175;-92
2023/10/08 06:54:04;;;;;;;19.90;18.00;;;10.50;92.30;;;;;;5006931;28;20198;-92
2023/10/08 06:56:31;;;;;;;27.33;24.70;;;10.60;92.30;;;;;;5007321;28;20178;-92
2023/10/08 06:58:59;;;;;;;27.17;24.83;;;10.50;92.20;;;;;;5005654;28;20205;-92
2023/10/08 07:01:24;;;;;;;29.50;27.27;;;10.40;92.20;;;;;;5007143;28;20198;-93
2023/10/08 07:04:03;;;;;;;18.23;15.80;;;10.40;92.10;;;;;;5005993;28;20206;-92
2023/10/08 07:06:33;;;;;;;17.10;15.37;;;10.40;92.10;;;;;;5003516;28;20169;-93
2023/10/08 07:09:04;;;;;;;23.50;21.63;;;10.40;92.00;;;;;;5003966;28;20177;-93
2023/10/08 07:11:34;;;;;;;23.97;22.10;;;10.40;91.80;;;;;;5006546;28;20182;-93
2023/10/08 07:14:04;;;;;;;17.83;15.27;;;10.40;91.70;;;;;;5005130;28;20178;-92
2023/10/08 07:16:32;;;;;;;16.97;15.77;;;10.40;91.60;;;;;;5006523;28;20180;-92
2023/10/08 07:19:17;;;;;;;24.30;22.17;;;10.40;91.50;;;;;;5004982;28;20186;-93
2023/10/08 07:21:45;;;;;;;25.60;23.70;;;10.40;91.50;;;;;;5008050;28;20190;-93
2023/10/08 07:24:17;;;;;;;26.70;24.70;;;10.40;91.40;;;;;;5010543;28;20198;-93
2023/10/08 07:26:46;;;;;;;15.97;14.83;;;10.40;91.40;;;;;;5010273;28;20174;-93
2023/10/08 07:29:16;;;;;;;17.53;15.90;;;10.50;91.30;;;;;;5011711;28;20178;-92
2023/10/08 07:31:42;;;;;;;17.67;16.37;;;10.50;91.10;;;;;;5011379;28;20178;-93
2023/10/08 07:34:15;;;;;;;17.33;15.87;;;10.50;90.90;;;;;;5009198;28;20201;-92
2023/10/08 07:36:43;;;;;;;16.43;14.93;;;10.50;90.50;;;;;;5005334;28;20155;-93
2023/10/08 07:39:20;;;;;;;16.97;15.47;;;10.60;90.00;;;;;;5005914;28;20174;-92
2023/10/08 07:41:47;;;;;;;22.10;16.40;;;10.60;89.60;;;;;;5005907;28;20198;-93
2023/10/08 07:44:12;;;;;;;19.43;16.90;;;10.70;89.20;;;;;;5014744;28;20290;-94
2023/10/08 07:46:38;;;;;;;18.20;16.57;;;10.70;89.00;;;;;;5013848;28;20209;-93
2023/10/08 07:49:05;;;;;;;20.57;16.40;;;10.80;88.80;;;;;;5008010;28;20186;-93
2023/10/08 07:51:30;;;;;;;25.27;18.00;;;10.90;88.60;;;;;;5011319;28;20167;-93
2023/10/08 07:53:56;;;;;;;19.17;15.77;;;11.00;88.20;;;;;;5009236;28;20182;-94
2023/10/08 07:56:25;;;;;;;17.87;16.43;;;11.10;87.60;;;;;;5008096;28;20178;-94
2023/10/08 07:58:52;;;;;;;17.50;16.20;;;11.20;87.30;;;;;;5009633;28;20179;-95
2023/10/08 08:01:17;;;;;;;17.87;16.00;;;11.30;87.10;;;;;;5012797;28;20205;-95
2023/10/08 08:03:44;;;;;;;17.53;16.13;;;11.50;86.50;;;;;;5015331;28;20182;-95
2023/10/08 08:06:10;;;;;;;27.37;24.70;;;11.50;85.70;;;;;;5015142;28;20170;-95
2023/10/08 08:08:37;;;;;;;30.43;27.60;;;11.50;85.10;;;;;;5013986;28;20220;-95
2023/10/08 08:11:05;;;;;;;29.57;27.07;;;11.50;85.10;;;;;;5015030;28;20270;-95
2023/10/08 08:13:33;;;;;;;18.70;16.57;;;11.60;85.10;;;;;;5016978;28;20182;-95
2023/10/08 08:16:09;;;;;;;20.53;17.13;;;11.60;83.20;;;;;;5016490;28;20260;-94
2023/10/08 08:18:36;;;;;;;28.37;25.87;;;11.70;83.00;;;;;;5015613;28;20134;-94
2023/10/08 08:21:02;;;;;;;29.07;26.43;;;11.70;83.40;;;;;;5014941;28;20210;-94
2023/10/08 08:23:31;;;;;;;28.57;26.37;;;11.80;83.70;;;;;;5013234;28;20668;-94
2023/10/08 08:26:06;;;;;;;18.10;16.80;;;11.70;82.10;;;;;;5014080;28;20205;-94
2023/10/08 08:28:33;;;;;;;20.60;17.97;;;11.80;81.90;;;;;;5016175;28;20173;-95
2023/10/08 08:31:13;;;;;;;29.53;27.10;;;11.90;81.20;;;;;;5014199;28;20178;-94
2023/10/08 08:36:24;;;;;;;;;;;12.00;81.40;;;;;;5009576;28;20189;-93
2023/10/08 08:38:50;;;;;;;;;;;12.10;81.10;;;;;;5009042;28;20274;-93
2023/10/08 08:41:20;;;;;;;20.83;18.60;;;12.10;80.00;;;;;;5015736;28;20267;-92
2023/10/08 08:44:04;;;;;;;29.30;26.93;;;12.20;80.30;;;;;;5018694;28;20158;-92
2023/10/08 08:46:35;;;;;;;31.03;28.67;;;12.30;80.00;;;;;;5018847;28;20181;-90
2023/10/08 08:49:07;;;;;;;19.50;17.93;;;12.20;80.10;;;;;;5018329;28;20154;-93
2023/10/08 08:51:35;;;;;;;19.23;17.33;;;12.20;80.70;;;;;;5004309;28;20174;-94
2023/10/08 08:54:06;;;;;;;24.63;22.37;;;12.20;80.40;;;;;;4994164;28;20181;-92
2023/10/08 08:56:33;;;;;;;30.07;27.87;;;12.30;80.20;;;;;;4993206;28;20638;-93
2023/10/08 08:58:59;;;;;;;32.43;29.97;;;12.40;79.10;;;;;;4993323;28;20170;-92
2023/10/08 09:01:25;;;;;;;20.10;18.47;;;12.50;78.60;;;;;;4993942;28;20321;-92
2023/10/08 09:03:50;;;;;;;20.43;18.63;;;12.40;77.60;;;;;;4996654;28;20202;-92
2023/10/08 09:06:17;;;;;;;19.70;18.20;;;12.60;78.10;;;;;;4997875;28;20229;-91
2023/10/08 09:08:45;;;;;;;21.03;19.03;;;12.70;78.20;;;;;;4998478;28;20220;-92
2023/10/08 09:11:17;;;;;;;19.63;17.80;;;12.70;78.10;;;;;;4996737;28;20182;-92
2023/10/08 09:13:43;;;;;;;20.60;18.70;;;12.80;77.50;;;;;;4996590;28;20174;-90
2023/10/08 09:16:15;;;;;;;21.90;19.87;;;12.70;75.40;;;;;;4996540;28;20274;-91
2023/10/08 09:18:43;;;;;;;21.13;19.27;;;12.80;76.00;;;;;;4997160;28;20170;-91
2023/10/08 09:21:14;;;;;;;21.30;19.50;;;12.80;74.30;;;;;;4996250;28;20252;-91
2023/10/08 09:23:43;;;;;;;22.10;20.10;;;12.90;74.30;;;;;;4996090;28;20600;-90
2023/10/08 09:26:13;;;;;;;22.87;20.40;;;13.00;75.00;;;;;;5001525;28;20174;-92
2023/10/08 09:28:40;;;;;;;22.83;20.70;;;13.10;73.80;;;;;;5001930;28;20150;-91
2023/10/08 09:31:11;;;;;;;22.67;20.87;;;13.10;74.20;;;;;;5001619;28;20177;-94
2023/10/08 09:33:37;;;;;;;22.70;20.90;;;13.20;73.20;;;;;;5002119;28;20170;-92
2023/10/08 09:36:07;;;;;;;21.83;20.10;;;13.30;74.60;;;;;;4995963;28;20202;-91
2023/10/08 09:38:33;;;;;;;23.27;21.47;;;13.30;73.20;;;;;;4995810;28;20577;-91
2023/10/08 09:41:02;;;;;;;20.83;19.23;;;13.50;74.50;;;;;;4995832;28;20580;-90
2023/10/08 09:43:28;;;;;;;21.57;19.67;;;13.60;74.90;;;;;;4996714;28;20205;-91
2023/10/08 09:46:22;;;;;;;22.57;20.70;;;13.70;75.20;;;;;;4995988;28;20308;-91
2023/10/08 09:48:53;;;;;;;21.87;19.97;;;13.80;74.20;;;;;;4993890;28;20181;-92
2023/10/08 09:51:20;;;;;;;22.93;20.47;;;13.80;73.90;;;;;;4996502;28;20170;-91
2023/10/08 09:54:00;;;;;;;22.00;20.43;;;13.70;70.30;;;;;;4995625;28;20233;-91
2023/10/08 09:56:29;;;;;;;22.97;21.10;;;13.80;70.40;;;;;;4995715;28;20333;-92
2023/10/08 09:58:54;;;;;;;23.10;20.90;;;13.90;71.20;;;;;;4995675;28;20178;-93
2023/10/08 10:01:26;;;;;;;22.00;20.00;;;14.10;72.80;;;;;;4995653;28;20209;-91
2023/10/08 10:03:51;;;;;;;23.00;21.08;;;14.00;69.80;;;;;;5000465;28;20232;-93
2023/10/08 10:06:18;;;;;;;22.17;20.30;;;14.10;70.90;;;;;;5012884;28;20186;-92
2023/10/08 10:08:45;;;;;;;24.00;21.70;;;14.20;70.40;;;;;;5005091;28;20253;-91
2023/10/08 10:11:11;;;;;;;23.00;21.05;;;14.10;66.90;;;;;;4996819;28;20182;-92
2023/10/08 10:13:44;;;;;;;24.02;22.00;;;14.00;65.30;;;;;;4996489;28;20237;-89
2023/10/08 10:16:13;;;;;;;24.48;22.48;;;14.10;66.20;;;;;;4995833;28;20178;-91
2023/10/08 10:18:39;;;;;;;24.70;22.97;;;14.10;67.40;;;;;;4996139;28;20236;-91
2023/10/08 10:21:13;;;;;;;22.37;20.77;;;14.20;68.30;;;;;;4996628;28;20207;-92
2023/10/08 10:23:50;;;;;;;24.50;22.50;;;14.20;67.10;;;;;;4996409;28;20630;-91
2023/10/08 10:26:31;;;;;;;23.93;22.20;;;14.10;67.10;;;;;;4996580;28;20656;-93
2023/10/08 10:29:14;;;;;;;23.10;21.50;;;14.00;66.80;;;;;;4995324;28;20174;-92
2023/10/08 10:31:54;;;;;;;23.15;21.10;;;14.00;66.80;;;;;;4995653;28;20178;-92
2023/10/08 10:34:22;;;;;;;23.83;21.97;;;14.10;66.00;;;;;;4997314;28;20185;-91
2023/10/08 10:36:55;;;;;;;22.87;21.07;;;14.20;65.20;;;;;;5006818;28;20189;-92
2023/10/08 10:39:27;;;;;;;23.33;21.50;;;14.20;65.10;;;;;;4998740;28;20197;-93
2023/10/08 10:41:57;;;;;;;22.55;20.95;;;14.20;64.30;;;;;;4996297;28;20229;-91
2023/10/08 10:44:24;;;;;;;23.63;21.88;;;14.20;64.10;;;;;;4995631;28;20197;-92
2023/10/08 10:46:50;;;;;;;21.73;20.10;;;14.10;62.70;;;;;;4996265;28;20193;-93
2023/10/08 10:51:57;;;;;;;21.83;20.33;;;14.00;63.20;;;;;;4996924;28;20174;-92
2023/10/08 10:54:25;;;;;;;22.15;20.65;;;14.00;63.60;;;;;;4999453;28;20198;-91
2023/10/08 10:57:03;;;;;;;24.02;21.67;;;14.10;66.80;;;;;;5010113;28;20190;-93
2023/10/08 10:59:37;;;;;;;21.52;19.67;;;14.10;65.40;;;;;;5005748;28;20176;-91
2023/10/08 11:02:07;;;;;;;21.50;19.90;;;14.10;64.60;;;;;;5006896;28;20719;-92
2023/10/08 11:04:47;;;;;;;22.43;20.73;;;14.20;65.40;;;;;;5011328;28;20205;-93
2023/10/08 11:07:16;;;;;;;21.88;20.15;;;14.20;66.90;;;;;;5006766;28;20178;-92
2023/10/08 11:09:44;;;;;;;22.00;20.35;;;14.20;65.30;;;;;;5003680;28;20182;-90
2023/10/08 11:12:14;;;;;;;23.75;21.73;;;14.20;65.00;;;;;;5014051;28;20185;-91
2023/10/08 11:14:43;;;;;;;23.00;21.33;;;14.30;66.00;;;;;;5005098;28;20225;-92
2023/10/08 11:17:31;;;;;;;23.08;21.08;;;14.20;66.40;;;;;;5004040;28;20178;-91
2023/10/08 11:19:57;;;;;;;22.20;20.77;;;14.30;66.90;;;;;;5003181;28;20557;-91
2023/10/08 11:22:39;;;;;;;22.30;20.70;;;14.30;65.80;;;;;;5001982;28;20182;-92
2023/10/08 11:25:24;;;;;;;22.60;21.00;;;14.50;65.50;;;;;;4995571;28;20623;-91
2023/10/08 11:27:58;;;;;;;21.23;19.73;;;14.80;66.40;;;;;;4995422;28;20641;-92
2023/10/08 11:30:24;;;;;;;22.13;20.08;;;14.70;63.20;;;;;;4997050;28;20231;-90
2023/10/08 11:32:50;;;;;;;22.52;21.02;;;14.70;63.20;;;;;;4996719;28;20190;-92
2023/10/08 11:35:17;;;;;;;20.90;19.35;;;14.80;64.80;;;;;;4995607;28;20205;-91
2023/10/08 11:37:50;;;;;;;21.00;19.50;;;15.00;64.20;;;;;;4995986;28;20178;-90
2023/10/08 11:40:28;;;;;;;21.00;19.45;;;15.10;64.90;;;;;;4994594;28;20206;-90
2023/10/08 11:43:03;;;;;;;23.80;21.77;;;15.10;63.70;;;;;;4999249;28;20253;-91
2023/10/08 11:45:38;;;;;;;23.40;21.80;;;15.00;64.80;;;;;;4994849;28;20209;-92
2023/10/08 11:48:11;;;;;;;22.25;20.85;;;15.30;66.40;;;;;;5000478;28;20170;-90
2023/10/08 11:50:38;;;;;;;23.58;21.65;;;15.40;64.80;;;;;;4995710;28;20245;-92
2023/10/08 11:53:05;;;;;;;23.00;21.17;;;15.40;64.80;;;;;;4994667;28;20184;-91
2023/10/08 11:55:38;;;;;;;23.08;21.27;;;15.60;63.40;;;;;;4994340;28;20194;-91
2023/10/08 11:58:11;;;;;;;20.40;19.00;;;15.90;64.50;;;;;;4994423;28;20553;-91
2023/10/08 12:00:46;;;;;;;23.85;22.25;;;16.10;63.80;;;;;;4995486;28;20190;-92
2023/10/08 12:03:12;;;;;;;21.13;19.55;;;16.30;64.80;;;;;;4994162;28;20177;-91
2023/10/08 12:05:47;;;;;;;21.73;20.02;;;16.30;61.50;;;;;;4994188;28;20194;-91
2023/10/08 12:08:16;;;;;;;20.92;19.52;;;16.30;61.90;;;;;;4995740;28;20374;-91
2023/10/08 12:10:43;;;;;;;30.90;28.63;;;16.20;62.40;;;;;;4993503;28;20171;-90
2023/10/08 12:13:10;;;;;;;34.58;32.25;;;16.00;58.90;;;;;;4993545;28;20213;-91
2023/10/08 12:15:39;;;;;;;36.55;33.60;;;15.90;62.00;;;;;;4994997;28;20190;-91
2023/10/08 12:18:08;;;;;;;29.60;27.65;;;15.80;64.50;;;;;;4994864;28;20170;-91
2023/10/08 12:20:43;;;;;;;22.17;20.55;;;15.60;64.60;;;;;;4993506;28;20252;-91
2023/10/08 12:23:10;;;;;;;22.77;20.70;;;15.60;64.00;;;;;;4993555;28;20181;-91
2023/10/08 12:25:37;;;;;;;33.90;31.40;;;15.50;65.20;;;;;;4993049;28;20280;-91
2023/10/08 12:28:04;;;;;;;35.33;32.83;;;15.60;66.20;;;;;;4994674;28;20181;-91
2023/10/08 12:30:30;;;;;;;26.00;24.33;;;15.50;64.40;;;;;;4993315;28;20178;-91
2023/10/08 12:33:00;;;;;;;22.23;20.65;;;15.20;63.40;;;;;;4994432;28;20166;-91
2023/10/08 12:35:29;;;;;;;22.70;21.02;;;15.10;63.70;;;;;;4993540;28;20197;-91
2023/10/08 12:37:55;;;;;;;33.55;31.00;;;14.90;64.90;;;;;;4993190;28;20272;-91
2023/10/08 12:40:23;;;;;;;36.90;34.33;;;14.80;66.10;;;;;;4994269;28;20201;-92
2023/10/08 12:42:50;;;;;;;21.85;20.35;;;14.80;65.50;;;;;;4994415;28;20237;-92
2023/10/08 12:45:20;;;;;;;23.45;21.75;;;15.00;66.10;;;;;;4993467;28;20221;-91
2023/10/08 12:47:51;;;;;;;23.55;21.65;;;14.90;66.10;;;;;;4993337;28;20185;-92
2023/10/08 12:50:42;;;;;;;32.40;30.20;;;14.90;64.70;;;;;;4994512;28;20250;-92
2023/10/08 12:53:11;;;;;;;37.75;35.25;;;14.80;63.20;;;;;;4995133;28;20154;-91
2023/10/08 12:55:39;;;;;;;22.83;21.23;;;14.70;64.50;;;;;;4994135;28;20576;-91
2023/10/08 12:58:09;;;;;;;23.95;22.33;;;14.50;63.70;;;;;;4994185;28;20173;-92
2023/10/08 13:00:37;;;;;;;23.17;21.38;;;14.60;65.10;;;;;;4994105;28;20194;-91
2023/10/08 13:03:05;;;;;;;24.20;22.25;;;14.60;66.00;;;;;;4993450;28;20236;-91
2023/10/08 13:05:33;;;;;;;22.80;21.20;;;14.60;66.40;;;;;;4993104;28;20742;-91
2023/10/08 13:08:09;;;;;;;23.27;21.75;;;14.60;66.40;;;;;;4993229;28;20208;-91
2023/10/08 13:10:35;;;;;;;22.88;21.27;;;14.40;64.70;;;;;;4994092;28;20202;-91
2023/10/08 13:13:00;;;;;;;23.35;21.27;;;14.40;65.00;;;;;;4993345;28;20185;-91
2023/10/08 13:15:26;;;;;;;23.95;22.05;;;14.50;66.70;;;;;;4992956;28;20196;-91
2023/10/08 13:17:52;;;;;;;23.45;21.65;;;14.30;64.60;;;;;;4994954;28;20178;-91
2023/10/08 13:20:18;;;;;;;22.38;20.77;;;14.40;66.40;;;;;;5000119;28;20234;-92
2023/10/08 13:22:43;;;;;;;23.25;21.55;;;14.40;65.20;;;;;;4995636;28;20185;-91
2023/10/08 13:25:11;;;;;;;23.63;21.92;;;14.40;65.10;;;;;;4999613;28;20249;-91
2023/10/08 13:27:39;;;;;;;22.50;21.00;;;14.40;64.80;;;;;;4996052;28;20174;-90
2023/10/08 13:30:08;;;;;;;22.83;21.13;;;14.40;65.70;;;;;;4994042;28;20173;-90
2023/10/08 13:32:36;;;;;;;23.45;21.67;;;14.30;64.20;;;;;;4993125;28;20229;-90